createdAt,value
2019-05-12T00:00:23.951Z,14.30
2019-05-12T00:02:52.502Z,14.20
2019-05-12T00:05:20.957Z,14.10
2019-05-12T00:07:49.453Z,14.10
2019-05-12T00:10:18.168Z,14.20
2019-05-12T00:12:48.160Z,14.10
2019-05-12T00:15:19.109Z,14.00
2019-05-12T00:17:48.078Z,14.10
2019-05-12T00:20:18.089Z,14.20
2019-05-12T00:22:50.462Z,14.10
2019-05-12T00:25:18.919Z,14.10
2019-05-12T00:27:48.582Z,14.10
2019-05-12T00:30:39.594Z,14.00
2019-05-12T00:33:09.406Z,14.00
2019-05-12T00:35:38.291Z,13.90
2019-05-12T00:38:09.015Z,13.80
2019-05-12T00:40:39.129Z,13.70
2019-05-12T00:43:08.743Z,13.70
2019-05-12T00:45:38.534Z,13.60
2019-05-12T00:48:09.110Z,13.50
2019-05-12T00:50:38.154Z,13.50
2019-05-12T00:53:09.004Z,13.60
2019-05-12T00:55:38.315Z,13.50
2019-05-12T00:58:08.287Z,13.50
2019-05-12T01:00:40.631Z,13.50
2019-05-12T01:03:08.701Z,13.50
2019-05-12T01:05:38.384Z,13.40
2019-05-12T01:08:09.104Z,13.30
2019-05-12T01:10:38.916Z,13.20
2019-05-12T01:13:08.547Z,13.20
2019-05-12T01:15:37.937Z,13.20
2019-05-12T01:18:09.142Z,13.10
2019-05-12T01:20:39.038Z,12.90
2019-05-12T01:23:08.544Z,12.80
2019-05-12T01:25:39.645Z,12.70
2019-05-12T01:28:08.494Z,12.70
2019-05-12T01:30:39.162Z,12.60
2019-05-12T01:33:08.534Z,12.60
2019-05-12T01:35:38.728Z,12.50
2019-05-12T01:38:08.209Z,12.60
2019-05-12T01:40:39.292Z,12.60
2019-05-12T01:43:08.548Z,12.70
2019-05-12T01:45:38.107Z,12.70
2019-05-12T01:48:08.641Z,12.70
2019-05-12T01:50:38.562Z,12.70
2019-05-12T01:53:08.434Z,12.80
2019-05-12T01:55:38.629Z,12.90
2019-05-12T01:58:08.348Z,12.90
2019-05-12T02:00:38.679Z,12.90
2019-05-12T02:03:09.157Z,12.90
2019-05-12T02:05:39.639Z,12.90
2019-05-12T02:08:12.133Z,12.90
2019-05-12T02:10:40.559Z,12.90
2019-05-12T02:13:09.057Z,12.90
2019-05-12T02:15:38.333Z,12.90
2019-05-12T02:18:09.007Z,13.00
2019-05-12T02:20:38.112Z,13.00
2019-05-12T02:23:08.980Z,13.00
2019-05-12T02:25:38.045Z,13.00
2019-05-12T02:28:09.143Z,13.10
2019-05-12T02:30:41.399Z,13.00
2019-05-12T02:33:07.928Z,13.00
2019-05-12T02:35:36.422Z,12.90
2019-05-12T02:38:05.362Z,12.80
2019-05-12T02:40:34.854Z,12.80
2019-05-12T02:43:05.276Z,12.80
2019-05-12T02:45:35.536Z,12.70
2019-05-12T02:48:05.247Z,12.70
2019-05-12T02:57:39.540Z,12.60
2019-05-12T03:00:08.273Z,12.60
2019-05-12T03:02:37.012Z,12.50
2019-05-12T03:05:06.475Z,12.50
2019-05-12T03:07:35.431Z,12.50
2019-05-12T03:10:05.350Z,12.50
2019-05-12T03:12:34.561Z,12.50
2019-05-12T03:15:05.381Z,12.50
2019-05-12T03:17:35.540Z,12.50
2019-05-12T03:20:05.139Z,12.50
2019-05-12T03:22:35.392Z,12.60
2019-05-12T03:25:11.285Z,12.60
2019-05-12T03:27:35.062Z,12.60
2019-05-12T03:30:09.839Z,12.70
2019-05-12T03:32:37.921Z,12.70
2019-05-12T03:35:08.915Z,12.70
2019-05-12T03:37:35.472Z,12.70
2019-05-12T03:40:05.454Z,12.70
2019-05-12T03:42:35.405Z,12.70
2019-05-12T03:45:04.779Z,12.70
2019-05-12T03:47:35.540Z,12.70
2019-05-12T03:50:04.761Z,12.80
2019-05-12T03:52:35.001Z,12.80
2019-05-12T03:55:05.584Z,12.80
2019-05-12T04:00:20.384Z,12.80
2019-05-12T04:02:48.821Z,12.80
2019-05-12T04:05:17.418Z,12.70
2019-05-12T04:07:45.855Z,12.70
2019-05-12T04:10:15.547Z,12.60
2019-05-12T04:12:45.048Z,12.50
2019-05-12T04:15:15.119Z,12.50
2019-05-12T04:17:45.455Z,12.40
2019-05-12T04:20:15.199Z,12.30
2019-05-12T04:22:44.775Z,12.20
2019-05-12T04:25:14.618Z,12.20
2019-05-12T04:27:45.047Z,12.00
2019-05-12T04:30:14.715Z,12.10
2019-05-12T04:32:45.177Z,12.10
2019-05-12T04:35:14.801Z,12.10
2019-05-12T04:37:44.909Z,12.10
2019-05-12T04:40:14.765Z,12.10
2019-05-12T04:42:45.178Z,12.20
2019-05-12T04:45:15.634Z,12.30
2019-05-12T04:47:45.060Z,12.40
2019-05-12T04:50:15.606Z,12.50
2019-05-12T04:52:44.728Z,12.50
2019-05-12T04:55:15.158Z,12.60
2019-05-12T04:57:44.989Z,12.60
2019-05-12T05:00:15.712Z,12.60
2019-05-12T05:02:45.564Z,12.70
2019-05-12T05:05:14.740Z,12.70
2019-05-12T05:07:44.748Z,12.80
2019-05-12T05:10:14.537Z,12.90
2019-05-12T05:12:44.978Z,12.90
2019-05-12T05:15:14.763Z,13.10
2019-05-12T05:17:44.158Z,13.10
2019-05-12T05:20:13.525Z,13.20
2019-05-12T05:22:43.988Z,13.20
2019-05-12T05:25:14.385Z,13.30
2019-05-12T05:27:44.419Z,13.30
2019-05-12T05:30:13.864Z,13.40
2019-05-12T05:32:44.469Z,13.50
2019-05-12T05:35:13.741Z,13.60
2019-05-12T05:37:44.257Z,13.80
2019-05-12T05:40:14.264Z,13.90
2019-05-12T05:42:43.984Z,14.10
2019-05-12T05:45:19.692Z,14.20
2019-05-12T05:47:44.239Z,14.30
2019-05-12T05:50:13.667Z,14.40
2019-05-12T05:52:43.792Z,14.50
2019-05-12T05:55:19.971Z,14.60
2019-05-12T05:57:44.403Z,14.80
2019-05-12T06:00:21.633Z,15.00
2019-05-12T06:02:44.123Z,15.30
2019-05-12T06:05:14.446Z,15.60
2019-05-12T06:07:44.346Z,16.10
2019-05-12T06:10:14.518Z,16.50
2019-05-12T06:12:48.701Z,16.90
2019-05-12T06:15:13.756Z,17.40
2019-05-12T06:17:43.882Z,17.80
2019-05-12T06:20:13.472Z,18.00
2019-05-12T06:22:43.760Z,18.20
2019-05-12T06:25:16.184Z,18.50
2019-05-12T06:27:44.318Z,18.80
2019-05-12T06:30:14.724Z,18.90
2019-05-12T06:32:49.718Z,19.20
2019-05-12T06:35:15.098Z,19.40
2019-05-12T06:37:44.357Z,19.70
2019-05-12T06:40:14.116Z,20.00
2019-05-12T06:42:43.646Z,20.00
2019-05-12T06:45:14.168Z,20.10
2019-05-12T06:47:45.410Z,20.30
2019-05-12T06:50:14.575Z,20.70
2019-05-12T06:52:48.725Z,20.80
2019-05-12T06:55:14.572Z,21.00
2019-05-12T06:57:45.896Z,21.00
2019-05-12T07:00:14.706Z,21.10
2019-05-12T07:02:49.959Z,21.20
2019-05-12T07:05:14.712Z,21.40
2019-05-12T07:07:46.014Z,21.60
2019-05-12T07:10:35.183Z,21.70
2019-05-12T07:12:57.586Z,21.80
2019-05-12T07:15:15.561Z,21.90
2019-05-12T07:17:55.666Z,22.10
2019-05-12T07:20:24.044Z,22.20
2019-05-12T07:22:54.855Z,22.40
2019-05-12T07:25:31.276Z,22.50
2019-05-12T07:28:00.715Z,22.30
2019-05-12T07:30:31.875Z,22.40
2019-05-12T07:33:01.331Z,22.40
2019-05-12T07:35:33.664Z,22.00
2019-05-12T07:38:04.497Z,21.60
2019-05-12T07:40:37.228Z,21.80
2019-05-12T07:43:04.235Z,21.50
2019-05-12T07:45:34.176Z,21.60
2019-05-12T07:48:08.721Z,21.50
2019-05-12T07:50:34.545Z,21.30
2019-05-12T07:53:04.308Z,21.10
2019-05-12T07:55:34.096Z,20.90
2019-05-12T07:58:10.268Z,21.00
2019-05-12T08:00:34.010Z,21.20
2019-05-12T08:03:06.289Z,21.30
2019-05-12T08:05:35.271Z,21.30
2019-05-12T08:08:10.729Z,21.10
2019-05-12T08:10:34.855Z,21.00
2019-05-12T08:13:23.781Z,20.80
2019-05-12T08:15:56.297Z,20.70
2019-05-12T08:18:24.701Z,20.50
2019-05-12T08:20:53.970Z,20.60
2019-05-12T08:23:23.564Z,20.40
2019-05-12T08:25:53.963Z,20.40
2019-05-12T08:28:27.896Z,20.10
2019-05-12T08:30:54.866Z,20.20
2019-05-12T08:33:24.540Z,20.10
2019-05-12T08:35:55.160Z,20.00
2019-05-12T08:38:24.902Z,20.00
2019-05-12T08:40:54.443Z,20.10
2019-05-12T08:43:24.091Z,20.20
2019-05-12T08:45:53.684Z,20.20
2019-05-12T08:48:25.086Z,20.10
2019-05-12T08:50:54.569Z,20.10
2019-05-12T08:53:25.846Z,20.00
2019-05-12T08:55:53.966Z,20.00
2019-05-12T08:58:31.442Z,20.10
2019-05-12T09:00:54.895Z,20.10
2019-05-12T09:03:27.206Z,20.20
2019-05-12T09:05:54.178Z,20.20
2019-05-12T09:08:24.306Z,20.40
2019-05-12T09:10:55.451Z,20.40
2019-05-12T09:13:24.331Z,20.60
2019-05-12T09:15:54.177Z,20.70
2019-05-12T09:18:28.336Z,20.70
2019-05-12T09:20:55.751Z,20.80
2019-05-12T09:23:23.962Z,20.90
2019-05-12T09:25:53.744Z,20.90
2019-05-12T09:28:23.971Z,21.00
2019-05-12T09:30:54.390Z,21.20
2019-05-12T09:33:27.562Z,21.10
2019-05-12T09:35:54.032Z,21.10
2019-05-12T09:38:24.043Z,21.10
2019-05-12T09:41:00.975Z,21.10
2019-05-12T09:43:23.945Z,21.40
2019-05-12T09:45:56.396Z,21.60
2019-05-12T09:48:24.648Z,21.40
2019-05-12T09:51:00.314Z,21.50
2019-05-12T09:53:23.896Z,21.70
2019-05-12T09:55:53.869Z,21.90
2019-05-12T09:58:27.237Z,22.10
2019-05-12T10:00:54.402Z,22.20
2019-05-12T10:03:24.191Z,22.10
2019-05-12T10:05:53.414Z,22.20
2019-05-12T10:08:23.979Z,22.10
2019-05-12T10:10:53.630Z,21.90
2019-05-12T10:13:28.180Z,21.60
2019-05-12T10:15:53.628Z,21.50
2019-05-12T10:18:24.333Z,21.40
2019-05-12T10:20:53.509Z,21.60
2019-05-12T10:23:26.676Z,22.00
2019-05-12T10:25:53.793Z,22.10
2019-05-12T10:28:23.853Z,22.20
2019-05-12T10:30:56.563Z,22.30
2019-05-12T10:33:23.302Z,22.40
2019-05-12T10:35:54.070Z,22.30
2019-05-12T10:38:24.176Z,22.40
2019-05-12T10:40:52.773Z,22.60
2019-05-12T10:43:23.526Z,22.70
2019-05-12T10:45:53.769Z,22.90
2019-05-12T10:48:23.392Z,22.90
2019-05-12T10:50:53.591Z,22.90
2019-05-12T10:53:23.555Z,22.90
2019-05-12T10:55:54.047Z,22.80
2019-05-12T10:58:24.866Z,22.70
2019-05-12T11:00:53.791Z,22.70
2019-05-12T11:03:24.376Z,22.90
2019-05-12T11:05:54.678Z,23.00
2019-05-12T11:08:24.669Z,23.10
2019-05-12T11:10:57.553Z,23.20
2019-05-12T11:13:23.936Z,22.80
2019-05-12T11:15:54.380Z,22.70
2019-05-12T11:18:26.156Z,22.70
2019-05-12T11:20:54.346Z,22.60
2019-05-12T11:23:24.413Z,22.40
2019-05-12T11:25:53.451Z,22.60
2019-05-12T11:28:24.271Z,22.80
2019-05-12T11:30:52.344Z,22.90
2019-05-12T11:33:23.630Z,22.90
2019-05-12T11:35:54.137Z,22.90
2019-05-12T11:38:24.432Z,23.00
2019-05-12T11:40:54.829Z,22.90
2019-05-12T11:43:24.760Z,22.70
2019-05-12T11:45:53.649Z,22.70
2019-05-12T11:48:23.652Z,22.50
2019-05-12T11:50:54.448Z,22.70
2019-05-12T11:53:30.313Z,22.90
2019-05-12T11:55:55.476Z,22.90
2019-05-12T11:58:23.917Z,23.00
2019-05-12T12:00:58.538Z,22.90
2019-05-12T12:03:24.802Z,23.00
2019-05-12T12:05:53.908Z,22.80
2019-05-12T12:08:26.405Z,22.80
2019-05-12T12:10:54.204Z,22.60
2019-05-12T12:13:28.259Z,22.40
2019-05-12T12:15:53.817Z,22.40
2019-05-12T12:18:23.599Z,22.60
2019-05-12T12:20:55.080Z,22.70
2019-05-12T12:23:23.417Z,22.70
2019-05-12T12:25:53.472Z,22.80
2019-05-12T12:28:24.161Z,23.00
2019-05-12T12:30:56.482Z,22.90
2019-05-12T12:33:23.499Z,22.70
2019-05-12T12:35:56.680Z,22.20
2019-05-12T12:38:22.954Z,22.00
2019-05-12T12:40:53.408Z,22.00
2019-05-12T12:43:22.121Z,22.10
2019-05-12T12:46:01.734Z,22.20
2019-05-12T12:48:30.180Z,22.20
2019-05-12T12:50:58.737Z,22.30
2019-05-12T12:53:27.755Z,22.10
2019-05-12T12:55:58.509Z,22.20
2019-05-12T12:58:31.129Z,22.30
2019-05-12T13:00:57.801Z,22.20
2019-05-12T13:03:29.848Z,22.20
2019-05-12T13:05:56.309Z,22.20
2019-05-12T13:08:24.860Z,22.10
2019-05-12T13:10:54.230Z,22.10
2019-05-12T13:13:24.525Z,22.20
2019-05-12T13:15:53.543Z,22.20
2019-05-12T13:18:24.730Z,22.20
2019-05-12T13:20:54.025Z,22.40
2019-05-12T13:23:34.691Z,22.50
2019-05-12T13:25:54.709Z,22.40
2019-05-12T13:28:25.815Z,22.50
2019-05-12T13:31:07.379Z,22.40
2019-05-12T13:33:24.252Z,22.30
2019-05-12T13:35:55.745Z,22.20
2019-05-12T13:38:23.861Z,22.10
2019-05-12T13:40:53.998Z,22.10
2019-05-12T13:43:23.781Z,22.00
2019-05-12T13:45:53.417Z,22.00
2019-05-12T13:48:23.963Z,22.00
2019-05-12T13:50:54.334Z,22.20
2019-05-12T13:53:24.340Z,22.10
2019-05-12T13:55:54.359Z,22.10
2019-05-12T13:58:28.285Z,22.20
2019-05-12T14:01:10.361Z,22.20
2019-05-12T14:03:27.927Z,22.10
2019-05-12T14:05:56.202Z,22.10
2019-05-12T14:08:24.620Z,22.10
2019-05-12T14:10:56.613Z,22.10
2019-05-12T14:13:24.559Z,22.00
2019-05-12T14:15:53.655Z,22.00
2019-05-12T14:18:22.420Z,21.90
2019-05-12T14:20:55.343Z,21.80
2019-05-12T14:23:21.035Z,21.80
2019-05-12T14:25:49.996Z,21.80
2019-05-12T14:28:18.944Z,21.70
2019-05-12T14:30:51.484Z,21.70
2019-05-12T14:33:18.480Z,21.70
2019-05-12T14:35:46.886Z,21.60
2019-05-12T14:38:19.273Z,21.60
2019-05-12T14:40:46.157Z,21.60
2019-05-12T14:43:16.887Z,21.70
2019-05-12T14:45:45.341Z,21.70
2019-05-12T14:48:13.894Z,21.60
2019-05-12T14:50:44.197Z,21.50
2019-05-12T14:53:14.473Z,21.50
2019-05-12T14:55:42.916Z,21.40
2019-05-12T14:58:15.763Z,21.40
2019-05-12T15:00:41.627Z,21.40
2019-05-12T15:03:13.793Z,21.30
2019-05-12T15:05:41.385Z,21.30
2019-05-12T15:08:10.620Z,21.20
2019-05-12T15:10:39.573Z,21.00
2019-05-12T15:13:08.062Z,21.00
2019-05-12T15:15:36.549Z,21.00
2019-05-12T15:18:10.080Z,21.00
2019-05-12T15:20:35.324Z,20.90
2019-05-12T15:23:03.940Z,20.80
2019-05-12T15:25:35.337Z,20.80
2019-05-12T15:28:03.892Z,20.70
2019-05-12T15:30:33.724Z,20.60
2019-05-12T15:33:04.323Z,20.70
2019-05-12T15:35:34.384Z,20.70
2019-05-12T15:38:03.741Z,20.60
2019-05-12T15:40:32.884Z,20.70
2019-05-12T15:43:05.201Z,20.60
2019-05-12T15:45:31.615Z,20.50
2019-05-12T15:48:00.107Z,20.60
2019-05-12T15:50:28.534Z,20.60
2019-05-12T15:52:57.024Z,20.60
2019-05-12T15:55:33.005Z,20.60
2019-05-12T15:57:55.739Z,20.40
2019-05-12T16:00:24.440Z,20.50
2019-05-12T16:02:53.519Z,20.40
2019-05-12T16:05:28.738Z,20.50
2019-05-12T16:07:54.057Z,20.40
2019-05-12T16:10:23.649Z,20.50
2019-05-12T16:12:52.207Z,20.40
2019-05-12T16:15:20.703Z,20.50
2019-05-12T16:17:49.218Z,20.40
2019-05-12T16:20:18.229Z,20.40
2019-05-12T16:22:46.684Z,20.50
2019-05-12T16:25:15.618Z,20.40
2019-05-12T16:27:44.839Z,20.40
2019-05-12T16:30:14.481Z,20.40
2019-05-12T16:32:47.515Z,20.40
2019-05-12T16:35:14.465Z,20.40
2019-05-12T16:37:44.519Z,20.30
2019-05-12T16:40:13.668Z,20.30
2019-05-12T16:42:48.359Z,20.30
2019-05-12T16:45:14.336Z,20.20
2019-05-12T16:47:44.696Z,20.30
2019-05-12T16:50:19.682Z,20.20
2019-05-12T16:52:45.552Z,20.20
2019-05-12T16:55:14.284Z,20.10
2019-05-12T16:57:50.981Z,20.00
2019-05-12T17:00:14.164Z,20.00
2019-05-12T17:02:52.029Z,19.90
2019-05-12T17:05:20.158Z,19.90
2019-05-12T17:07:44.530Z,19.70
2019-05-12T17:10:16.500Z,19.60
2019-05-12T17:12:47.956Z,19.60
2019-05-12T17:15:15.296Z,19.50
2019-05-12T17:17:44.760Z,19.50
2019-05-12T17:20:15.778Z,19.50
2019-05-12T17:22:54.073Z,19.40
2019-05-12T17:25:15.563Z,19.30
2019-05-12T17:27:44.918Z,19.20
2019-05-12T17:30:14.346Z,19.20
2019-05-12T17:32:57.536Z,19.10
2019-05-12T17:35:14.697Z,19.10
2019-05-12T17:37:43.588Z,19.10
2019-05-12T17:40:15.563Z,19.10
2019-05-12T17:42:44.311Z,19.00
2019-05-12T17:45:15.821Z,18.90
2019-05-12T17:47:44.548Z,18.90
2019-05-12T17:50:13.873Z,18.80
2019-05-12T17:52:45.054Z,18.80
2019-05-12T17:55:14.587Z,18.70
2019-05-12T17:57:43.824Z,18.60
2019-05-12T18:00:14.477Z,18.60
2019-05-12T18:02:43.917Z,18.50
2019-05-12T18:05:15.650Z,18.50
2019-05-12T18:07:44.643Z,18.50
2019-05-12T18:10:13.884Z,18.40
2019-05-12T18:12:45.210Z,18.40
2019-05-12T18:15:15.049Z,18.30
2019-05-12T18:17:49.378Z,18.30
2019-05-12T18:20:14.914Z,18.30
2019-05-12T18:22:44.900Z,18.20
2019-05-12T18:25:14.841Z,18.20
2019-05-12T18:27:50.339Z,18.10
2019-05-12T18:30:18.245Z,18.10
2019-05-12T18:32:44.454Z,18.00
2019-05-12T18:35:13.719Z,18.00
2019-05-12T18:37:42.499Z,18.00
2019-05-12T18:40:14.750Z,17.90
2019-05-12T18:42:42.753Z,17.80
2019-05-12T18:45:17.304Z,17.80
2019-05-12T18:47:43.985Z,17.80
2019-05-12T18:50:14.193Z,17.70
2019-05-12T18:52:46.350Z,17.70
2019-05-12T18:55:16.978Z,17.60
2019-05-12T18:57:49.914Z,17.60
2019-05-12T19:00:24.580Z,17.50
2019-05-12T19:02:54.736Z,17.40
2019-05-12T19:05:30.730Z,17.40
2019-05-12T19:07:58.432Z,17.40
2019-05-12T19:10:28.514Z,17.30
2019-05-12T19:13:02.033Z,17.30
2019-05-12T19:15:30.146Z,17.30
2019-05-12T19:18:00.663Z,17.30
2019-05-12T19:20:31.369Z,17.20
2019-05-12T19:23:04.287Z,17.20
2019-05-12T19:25:35.817Z,17.10
2019-05-12T19:28:10.205Z,17.10
2019-05-12T19:30:37.045Z,17.10
2019-05-12T19:33:10.740Z,17.00
2019-05-12T19:35:39.610Z,17.10
2019-05-12T19:38:09.587Z,17.10
2019-05-12T19:40:40.553Z,17.00
2019-05-12T19:43:10.487Z,17.00
2019-05-12T19:45:40.187Z,17.00
2019-05-12T19:48:23.181Z,16.90
2019-05-12T19:50:51.591Z,16.90
2019-05-12T19:53:15.505Z,16.90
2019-05-12T19:55:45.621Z,16.90
2019-05-12T19:58:15.669Z,16.80
2019-05-12T20:00:46.426Z,16.80
2019-05-12T20:03:19.029Z,16.70
2019-05-12T20:05:48.962Z,16.70
2019-05-12T20:08:19.728Z,16.70
2019-05-12T20:10:49.806Z,16.70
2019-05-12T20:13:20.972Z,16.70
2019-05-12T20:15:54.271Z,16.50
2019-05-12T20:18:24.163Z,16.50
2019-05-12T20:20:54.650Z,16.50
2019-05-12T20:23:24.660Z,16.50
2019-05-12T20:25:54.576Z,16.40
2019-05-12T20:28:24.769Z,16.30
2019-05-12T20:31:00.952Z,16.40
2019-05-12T20:33:27.039Z,16.30
2019-05-12T20:35:57.424Z,16.30
2019-05-12T20:38:33.910Z,16.30
2019-05-12T20:40:58.624Z,16.30
2019-05-12T20:43:32.243Z,16.30
2019-05-12T20:46:00.029Z,16.20
2019-05-12T20:48:31.316Z,16.20
2019-05-12T20:51:00.214Z,16.20
2019-05-12T20:53:32.232Z,16.20
2019-05-12T20:55:59.006Z,16.10
2019-05-12T20:58:34.233Z,16.10
2019-05-12T21:00:58.293Z,16.10
2019-05-12T21:03:26.685Z,16.00
2019-05-12T21:05:59.738Z,16.00
2019-05-12T21:08:25.974Z,16.00
2019-05-12T21:10:54.406Z,16.00
2019-05-12T21:13:27.355Z,16.00
2019-05-12T21:15:53.977Z,16.00
2019-05-12T21:18:23.759Z,16.00
2019-05-12T21:20:54.884Z,16.00
2019-05-12T21:23:24.166Z,15.90
2019-05-12T21:25:57.917Z,15.80
2019-05-12T21:28:23.896Z,15.80
2019-05-12T21:30:53.087Z,15.80
2019-05-12T21:33:24.041Z,15.80
2019-05-12T21:35:54.650Z,15.70
2019-05-12T21:38:27.564Z,15.70
2019-05-12T21:40:53.181Z,15.70
2019-05-12T21:43:21.687Z,15.60
2019-05-12T21:45:50.130Z,15.60
2019-05-12T21:48:23.850Z,15.60
2019-05-12T21:50:48.878Z,15.60
2019-05-12T21:53:20.567Z,15.60
2019-05-12T21:55:47.656Z,15.60
2019-05-12T21:58:16.267Z,15.50
2019-05-12T22:00:50.516Z,15.50
2019-05-12T22:03:24.133Z,15.50
2019-05-12T22:05:55.343Z,15.40
2019-05-12T22:08:25.415Z,15.40
2019-05-12T22:10:54.665Z,15.40
2019-05-12T22:13:24.857Z,15.40
2019-05-12T22:15:56.953Z,15.30
2019-05-12T22:18:24.420Z,15.30
2019-05-12T22:21:00.987Z,15.20
2019-05-12T22:23:24.731Z,15.30
2019-05-12T22:25:55.548Z,15.20
2019-05-12T22:28:24.015Z,15.20
2019-05-12T22:30:54.178Z,15.20
2019-05-12T22:33:24.230Z,15.10
2019-05-12T22:36:02.835Z,15.10
2019-05-12T22:38:24.756Z,15.10
2019-05-12T22:40:56.221Z,15.10
2019-05-12T22:43:23.879Z,15.20
2019-05-12T22:45:54.789Z,15.10
2019-05-12T22:48:23.737Z,15.20
2019-05-12T22:50:52.220Z,15.20
2019-05-12T22:53:25.669Z,15.10
2019-05-12T22:55:53.299Z,15.10
2019-05-12T22:58:23.156Z,15.10
2019-05-12T23:01:00.746Z,15.00
2019-05-12T23:03:22.361Z,15.10
2019-05-12T23:06:00.085Z,15.10
2019-05-12T23:08:21.468Z,15.10
2019-05-12T23:10:51.928Z,15.10
2019-05-12T23:13:20.648Z,15.10
2019-05-12T23:15:49.580Z,15.10
2019-05-12T23:18:25.318Z,15.10
2019-05-12T23:20:49.913Z,15.10
2019-05-12T23:23:18.904Z,15.00
2019-05-12T23:25:51.955Z,15.00
2019-05-12T23:28:18.117Z,15.00
2019-05-12T23:30:48.425Z,15.00
2019-05-12T23:33:16.879Z,15.00
2019-05-12T23:35:45.377Z,15.00
2019-05-12T23:38:18.814Z,15.00
2019-05-12T23:40:45.019Z,15.00
2019-05-12T23:43:14.501Z,15.00
2019-05-12T23:45:44.455Z,14.90
2019-05-12T23:48:14.311Z,15.00
2019-05-12T23:50:43.854Z,15.00
2019-05-12T23:53:14.077Z,14.90
2019-05-12T23:55:43.760Z,14.90
2019-05-12T23:58:14.403Z,14.90
